sensor_id;sensor_type;location;lat;lon;timestamp;pressure;altitude;pressure_sealevel;temperature;humidity
5574;BME280;2563;52.242;7.956;2023-09-18T00:00:22;100266.09;;;17.71;100.00
5574;BME280;2563;52.242;7.956;2023-09-18T00:02:48;100243.69;;;17.68;100.00
5574;BME280;2563;52.242;7.956;2023-09-18T00:05:13;100222.78;;;17.70;100.00
5574;BME280;2563;52.242;7.956;2023-09-18T00:07:44;100203.53;;;17.72;100.00
5574;BME280;2563;52.242;7.956;2023-09-18T00:10:10;100202.81;;;17.84;100.00
5574;BME280;2563;52.242;7.956;2023-09-18T00:12:36;100213.72;;;17.91;100.00
5574;BME280;2563;52.242;7.956;2023-09-18T00:15:02;100223.19;;;17.92;100.00
5574;BME280;2563;52.242;7.956;2023-09-18T00:17:28;100216.47;;;17.88;100.00
5574;BME280;2563;52.242;7.956;2023-09-18T00:19:53;100221.03;;;17.84;100.00
5574;BME280;2563;52.242;7.956;2023-09-18T00:22:19;100223.38;;;17.89;100.00
5574;BME280;2563;52.242;7.956;2023-09-18T00:24:44;100211.72;;;17.80;100.00
5574;BME280;2563;52.242;7.956;2023-09-18T00:27:10;100213.66;;;17.77;100.00
5574;BME280;2563;52.242;7.956;2023-09-18T00:29:36;100207.59;;;17.76;100.00
5574;BME280;2563;52.242;7.956;2023-09-18T00:32:02;100203.59;;;17.71;100.00
5574;BME280;2563;52.242;7.956;2023-09-18T00:34:29;100203.78;;;17.68;100.00
5574;BME280;2563;52.242;7.956;2023-09-18T00:36:54;100193.75;;;17.61;100.00
5574;BME280;2563;52.242;7.956;2023-09-18T00:39:20;100210.63;;;17.84;100.00
5574;BME280;2563;52.242;7.956;2023-09-18T00:41:45;100220.38;;;17.95;100.00
5574;BME280;2563;52.242;7.956;2023-09-18T00:44:14;100204.41;;;18.01;100.00
5574;BME280;2563;52.242;7.956;2023-09-18T00:46:40;100185.16;;;18.04;100.00
5574;BME280;2563;52.242;7.956;2023-09-18T00:49:05;100151.84;;;18.09;100.00
5574;BME280;2563;52.242;7.956;2023-09-18T00:51:31;100132.50;;;18.13;100.00
5574;BME280;2563;52.242;7.956;2023-09-18T00:53:57;100087.38;;;18.13;100.00
5574;BME280;2563;52.242;7.956;2023-09-18T00:56:23;100050.75;;;18.01;100.00
5574;BME280;2563;52.242;7.956;2023-09-18T00:58:48;100019.34;;;17.90;100.00
5574;BME280;2563;52.242;7.956;2023-09-18T01:01:18;100022.97;;;17.88;100.00
5574;BME280;2563;52.242;7.956;2023-09-18T01:03:49;100041.47;;;17.83;100.00
5574;BME280;2563;52.242;7.956;2023-09-18T01:06:15;100054.50;;;17.69;100.00
5574;BME280;2563;52.242;7.956;2023-09-18T01:08:40;100038.59;;;17.59;100.00
5574;BME280;2563;52.242;7.956;2023-09-18T01:14:17;100060.81;;;17.64;100.00
5574;BME280;2563;52.242;7.956;2023-09-18T01:16:51;100065.00;;;17.67;100.00
5574;BME280;2563;52.242;7.956;2023-09-18T01:19:35;100105.25;;;17.90;100.00
5574;BME280;2563;52.242;7.956;2023-09-18T01:22:01;100105.66;;;17.84;100.00
5574;BME280;2563;52.242;7.956;2023-09-18T01:24:26;100099.59;;;17.83;100.00
5574;BME280;2563;52.242;7.956;2023-09-18T01:26:52;100095.78;;;17.75;100.00
5574;BME280;2563;52.242;7.956;2023-09-18T01:29:17;100094.06;;;17.74;100.00
5574;BME280;2563;52.242;7.956;2023-09-18T01:31:44;100090.72;;;17.72;100.00
5574;BME280;2563;52.242;7.956;2023-09-18T01:34:12;100090.94;;;17.69;100.00
5574;BME280;2563;52.242;7.956;2023-09-18T01:36:38;100073.66;;;17.68;100.00
5574;BME280;2563;52.242;7.956;2023-09-18T01:39:04;100066.59;;;17.70;100.00
5574;BME280;2563;52.242;7.956;2023-09-18T01:41:30;100062.22;;;17.70;100.00
5574;BME280;2563;52.242;7.956;2023-09-18T01:43:56;100031.25;;;17.65;100.00
5574;BME280;2563;52.242;7.956;2023-09-18T01:46:22;100032.75;;;17.70;100.00
5574;BME280;2563;52.242;7.956;2023-09-18T01:48:47;100005.72;;;17.58;100.00
5574;BME280;2563;52.242;7.956;2023-09-18T01:51:14;99982.94;;;17.47;100.00
5574;BME280;2563;52.242;7.956;2023-09-18T01:53:40;99985.00;;;17.42;100.00
5574;BME280;2563;52.242;7.956;2023-09-18T01:56:06;99998.34;;;17.50;100.00
5574;BME280;2563;52.242;7.956;2023-09-18T01:58:32;100035.72;;;17.63;100.00
5574;BME280;2563;52.242;7.956;2023-09-18T02:01:00;100046.97;;;17.64;100.00
5574;BME280;2563;52.242;7.956;2023-09-18T02:03:25;100066.59;;;17.70;100.00
5574;BME280;2563;52.242;7.956;2023-09-18T02:05:51;100084.09;;;17.82;100.00
5574;BME280;2563;52.242;7.956;2023-09-18T02:08:16;100077.94;;;17.83;100.00
5574;BME280;2563;52.242;7.956;2023-09-18T02:10:42;100067.22;;;17.88;100.00
5574;BME280;2563;52.242;7.956;2023-09-18T02:13:07;100068.16;;;18.01;100.00
5574;BME280;2563;52.242;7.956;2023-09-18T02:15:32;100057.31;;;18.07;100.00
5574;BME280;2563;52.242;7.956;2023-09-18T02:18:00;100047.28;;;18.15;100.00
5574;BME280;2563;52.242;7.956;2023-09-18T02:20:25;100024.59;;;18.30;100.00
5574;BME280;2563;52.242;7.956;2023-09-18T02:22:51;99989.19;;;18.40;100.00
5574;BME280;2563;52.242;7.956;2023-09-18T02:25:17;99946.88;;;18.49;100.00
5574;BME280;2563;52.242;7.956;2023-09-18T02:27:42;99896.63;;;18.47;100.00
5574;BME280;2563;52.242;7.956;2023-09-18T02:30:08;99860.16;;;18.47;100.00
5574;BME280;2563;52.242;7.956;2023-09-18T02:32:35;99845.47;;;18.46;100.00
5574;BME280;2563;52.242;7.956;2023-09-18T02:35:01;99833.47;;;18.44;100.00
5574;BME280;2563;52.242;7.956;2023-09-18T02:37:27;99832.44;;;18.46;100.00
5574;BME280;2563;52.242;7.956;2023-09-18T02:39:54;99831.47;;;18.47;100.00
5574;BME280;2563;52.242;7.956;2023-09-18T02:42:19;99826.78;;;18.53;100.00
5574;BME280;2563;52.242;7.956;2023-09-18T02:44:45;99807.41;;;18.57;100.00
5574;BME280;2563;52.242;7.956;2023-09-18T02:47:10;99779.69;;;18.56;100.00
5574;BME280;2563;52.242;7.956;2023-09-18T02:49:35;99766.84;;;18.53;100.00
5574;BME280;2563;52.242;7.956;2023-09-18T02:52:01;99759.25;;;18.49;100.00
5574;BME280;2563;52.242;7.956;2023-09-18T02:54:26;99752.38;;;18.48;100.00
5574;BME280;2563;52.242;7.956;2023-09-18T02:56:52;99740.50;;;18.44;100.00
5574;BME280;2563;52.242;7.956;2023-09-18T02:59:17;99746.94;;;18.39;100.00
5574;BME280;2563;52.242;7.956;2023-09-18T03:01:43;99755.63;;;18.39;100.00
5574;BME280;2563;52.242;7.956;2023-09-18T03:04:08;99760.31;;;18.34;100.00
5574;BME280;2563;52.242;7.956;2023-09-18T03:06:33;99760.50;;;18.31;100.00
5574;BME280;2563;52.242;7.956;2023-09-18T03:08:59;99768.97;;;18.35;100.00
5574;BME280;2563;52.242;7.956;2023-09-18T03:11:24;99769.56;;;18.38;100.00
5574;BME280;2563;52.242;7.956;2023-09-18T03:13:52;99758.22;;;18.39;100.00
5574;BME280;2563;52.242;7.956;2023-09-18T03:16:17;99737.16;;;18.42;100.00
5574;BME280;2563;52.242;7.956;2023-09-18T03:18:43;99712.75;;;18.43;100.00
5574;BME280;2563;52.242;7.956;2023-09-18T03:21:08;99708.28;;;18.45;100.00
5574;BME280;2563;52.242;7.956;2023-09-18T03:23:34;99698.81;;;18.44;100.00
5574;BME280;2563;52.242;7.956;2023-09-18T03:25:59;99688.38;;;18.44;100.00
5574;BME280;2563;52.242;7.956;2023-09-18T03:28:25;99676.28;;;18.43;100.00
5574;BME280;2563;52.242;7.956;2023-09-18T03:30:50;99672.75;;;18.44;100.00
5574;BME280;2563;52.242;7.956;2023-09-18T03:33:15;99652.72;;;18.45;100.00
5574;BME280;2563;52.242;7.956;2023-09-18T03:35:51;99649.28;;;18.44;100.00
5574;BME280;2563;52.242;7.956;2023-09-18T03:38:17;99638.97;;;18.43;100.00
5574;BME280;2563;52.242;7.956;2023-09-18T03:40:42;99643.59;;;18.39;100.00
5574;BME280;2563;52.242;7.956;2023-09-18T03:43:09;99626.75;;;18.43;100.00
5574;BME280;2563;52.242;7.956;2023-09-18T03:45:35;99639.47;;;18.48;100.00
5574;BME280;2563;52.242;7.956;2023-09-18T03:48:01;99624.63;;;18.37;100.00
5574;BME280;2563;52.242;7.956;2023-09-18T03:50:26;99629.44;;;18.31;100.00
5574;BME280;2563;52.242;7.956;2023-09-18T03:52:52;99623.63;;;18.27;100.00
5574;BME280;2563;52.242;7.956;2023-09-18T03:55:18;99632.69;;;18.21;100.00
5574;BME280;2563;52.242;7.956;2023-09-18T03:57:43;99633.50;;;18.22;100.00
5574;BME280;2563;52.242;7.956;2023-09-18T04:00:11;99649.88;;;18.24;100.00
5574;BME280;2563;52.242;7.956;2023-09-18T04:02:37;99645.28;;;18.27;100.00
5574;BME280;2563;52.242;7.956;2023-09-18T04:05:03;99650.44;;;18.40;100.00
5574;BME280;2563;52.242;7.956;2023-09-18T04:07:30;99637.75;;;18.36;100.00
5574;BME280;2563;52.242;7.956;2023-09-18T04:09:56;99635.47;;;18.31;100.00
5574;BME280;2563;52.242;7.956;2023-09-18T04:12:21;99639.78;;;18.43;100.00
5574;BME280;2563;52.242;7.956;2023-09-18T04:14:47;99656.97;;;18.46;100.00
5574;BME280;2563;52.242;7.956;2023-09-18T04:17:12;99652.50;;;18.48;100.00
5574;BME280;2563;52.242;7.956;2023-09-18T04:19:37;99646.63;;;18.57;100.00
5574;BME280;2563;52.242;7.956;2023-09-18T04:22:03;99657.44;;;18.64;100.00
5574;BME280;2563;52.242;7.956;2023-09-18T04:24:28;99646.94;;;18.65;100.00
5574;BME280;2563;52.242;7.956;2023-09-18T04:26:54;99629.66;;;19.00;100.00
5574;BME280;2563;52.242;7.956;2023-09-18T04:29:19;99634.47;;;19.28;100.00
5574;BME280;2563;52.242;7.956;2023-09-18T04:31:45;99628.84;;;19.57;100.00
5574;BME280;2563;52.242;7.956;2023-09-18T04:34:11;99624.81;;;20.09;100.00
5574;BME280;2563;52.242;7.956;2023-09-18T04:36:36;99628.19;;;20.44;100.00
5574;BME280;2563;52.242;7.956;2023-09-18T04:39:05;99639.22;;;20.58;100.00
5574;BME280;2563;52.242;7.956;2023-09-18T04:41:31;99662.00;;;20.79;100.00
5574;BME280;2563;52.242;7.956;2023-09-18T04:43:56;99672.19;;;20.82;100.00
5574;BME280;2563;52.242;7.956;2023-09-18T04:46:22;99623.88;;;20.97;100.00
5574;BME280;2563;52.242;7.956;2023-09-18T04:48:49;99554.19;;;20.96;100.00
5574;BME280;2563;52.242;7.956;2023-09-18T04:51:14;99497.75;;;21.03;100.00
5574;BME280;2563;52.242;7.956;2023-09-18T04:53:39;99499.47;;;21.14;100.00
5574;BME280;2563;52.242;7.956;2023-09-18T04:56:05;99514.44;;;21.02;100.00
5574;BME280;2563;52.242;7.956;2023-09-18T04:58:31;99527.94;;;21.08;100.00
5574;BME280;2563;52.242;7.956;2023-09-18T05:00:58;99534.81;;;21.09;100.00
5574;BME280;2563;52.242;7.956;2023-09-18T05:03:24;99552.63;;;21.15;100.00
5574;BME280;2563;52.242;7.956;2023-09-18T05:05:50;99566.75;;;21.02;100.00
5574;BME280;2563;52.242;7.956;2023-09-18T05:08:15;99592.38;;;20.88;100.00
5574;BME280;2563;52.242;7.956;2023-09-18T05:10:41;99599.75;;;20.94;100.00
5574;BME280;2563;52.242;7.956;2023-09-18T05:13:06;99609.63;;;21.11;100.00
5574;BME280;2563;52.242;7.956;2023-09-18T05:15:32;99620.34;;;21.29;100.00
5574;BME280;2563;52.242;7.956;2023-09-18T05:17:59;99618.81;;;21.48;100.00
5574;BME280;2563;52.242;7.956;2023-09-18T05:20:26;99630.19;;;21.37;100.00
5574;BME280;2563;52.242;7.956;2023-09-18T05:22:54;99637.75;;;21.19;100.00
5574;BME280;2563;52.242;7.956;2023-09-18T05:25:19;99638.03;;;21.16;100.00
5574;BME280;2563;52.242;7.956;2023-09-18T05:27:47;99657.06;;;21.18;100.00
5574;BME280;2563;52.242;7.956;2023-09-18T05:30:18;99651.00;;;21.17;100.00
5574;BME280;2563;52.242;7.956;2023-09-18T05:32:46;99659.22;;;21.13;100.00
5574;BME280;2563;52.242;7.956;2023-09-18T05:35:13;99655.91;;;21.11;100.00
5574;BME280;2563;52.242;7.956;2023-09-18T05:37:39;99670.63;;;21.12;100.00
5574;BME280;2563;52.242;7.956;2023-09-18T05:40:06;99674.81;;;21.14;100.00
5574;BME280;2563;52.242;7.956;2023-09-18T05:42:35;99671.78;;;20.98;100.00
5574;BME280;2563;52.242;7.956;2023-09-18T05:45:01;99671.88;;;21.08;100.00
5574;BME280;2563;52.242;7.956;2023-09-18T05:47:27;99661.78;;;21.24;100.00
5574;BME280;2563;52.242;7.956;2023-09-18T05:49:52;99654.00;;;21.13;100.00
5574;BME280;2563;52.242;7.956;2023-09-18T05:52:17;99643.78;;;21.10;100.00
5574;BME280;2563;52.242;7.956;2023-09-18T05:54:43;99644.41;;;21.02;100.00
5574;BME280;2563;52.242;7.956;2023-09-18T05:57:08;99641.66;;;21.03;100.00
5574;BME280;2563;52.242;7.956;2023-09-18T05:59:33;99647.34;;;21.09;100.00
5574;BME280;2563;52.242;7.956;2023-09-18T06:01:59;99646.84;;;21.15;100.00
5574;BME280;2563;52.242;7.956;2023-09-18T06:04:24;99655.41;;;21.17;100.00
5574;BME280;2563;52.242;7.956;2023-09-18T06:06:50;99645.88;;;21.16;100.00
5574;BME280;2563;52.242;7.956;2023-09-18T06:09:16;99647.41;;;21.18;100.00
5574;BME280;2563;52.242;7.956;2023-09-18T06:11:41;99645.00;;;21.27;100.00
5574;BME280;2563;52.242;7.956;2023-09-18T06:14:07;99643.72;;;21.21;100.00
5574;BME280;2563;52.242;7.956;2023-09-18T06:16:32;99641.69;;;21.24;100.00
5574;BME280;2563;52.242;7.956;2023-09-18T06:18:58;99653.09;;;21.23;100.00
5574;BME280;2563;52.242;7.956;2023-09-18T06:21:25;99652.66;;;21.18;100.00
5574;BME280;2563;52.242;7.956;2023-09-18T06:23:50;99659.22;;;21.13;100.00
5574;BME280;2563;52.242;7.956;2023-09-18T06:26:16;99668.88;;;21.12;100.00
5574;BME280;2563;52.242;7.956;2023-09-18T06:28:42;99662.78;;;21.12;100.00
5574;BME280;2563;52.242;7.956;2023-09-18T06:31:08;99673.25;;;21.12;100.00
5574;BME280;2563;52.242;7.956;2023-09-18T06:33:33;99671.13;;;21.17;100.00
5574;BME280;2563;52.242;7.956;2023-09-18T06:35:59;99661.84;;;21.13;100.00
5574;BME280;2563;52.242;7.956;2023-09-18T06:38:24;99662.28;;;21.18;100.00
5574;BME280;2563;52.242;7.956;2023-09-18T06:40:49;99663.81;;;21.20;100.00
5574;BME280;2563;52.242;7.956;2023-09-18T06:43:15;99658.91;;;21.27;100.00
5574;BME280;2563;52.242;7.956;2023-09-18T06:45:40;99665.28;;;21.45;100.00
5574;BME280;2563;52.242;7.956;2023-09-18T06:48:06;99655.69;;;21.56;100.00
5574;BME280;2563;52.242;7.956;2023-09-18T06:50:31;99649.91;;;21.62;100.00
5574;BME280;2563;52.242;7.956;2023-09-18T06:52:57;99641.69;;;21.76;100.00
5574;BME280;2563;52.242;7.956;2023-09-18T06:55:22;99643.31;;;22.39;100.00
5574;BME280;2563;52.242;7.956;2023-09-18T06:57:47;99629.25;;;22.40;100.00
5574;BME280;2563;52.242;7.956;2023-09-18T07:00:14;99625.06;;;22.27;100.00
5574;BME280;2563;52.242;7.956;2023-09-18T07:02:45;99629.00;;;22.12;100.00
5574;BME280;2563;52.242;7.956;2023-09-18T07:05:11;99645.00;;;21.78;100.00
5574;BME280;2563;52.242;7.956;2023-09-18T07:07:36;99640.06;;;21.75;100.00
5574;BME280;2563;52.242;7.956;2023-09-18T07:10:02;99645.91;;;21.88;100.00
5574;BME280;2563;52.242;7.956;2023-09-18T07:12:27;99651.19;;;21.98;100.00
5574;BME280;2563;52.242;7.956;2023-09-18T07:14:53;99659.69;;;21.91;100.00
5574;BME280;2563;52.242;7.956;2023-09-18T07:17:18;99659.09;;;21.77;100.00
5574;BME280;2563;52.242;7.956;2023-09-18T07:19:44;99663.78;;;21.83;100.00
5574;BME280;2563;52.242;7.956;2023-09-18T07:22:09;99662.50;;;21.68;100.00
5574;BME280;2563;52.242;7.956;2023-09-18T07:24:34;99661.78;;;21.66;100.00
5574;BME280;2563;52.242;7.956;2023-09-18T07:27:00;99651.84;;;21.60;100.00
5574;BME280;2563;52.242;7.956;2023-09-18T07:29:25;99653.44;;;21.51;100.00
5574;BME280;2563;52.242;7.956;2023-09-18T07:31:51;99659.44;;;21.42;100.00
5574;BME280;2563;52.242;7.956;2023-09-18T07:34:17;99670.88;;;21.41;100.00
5574;BME280;2563;52.242;7.956;2023-09-18T07:36:43;99669.41;;;21.48;100.00
5574;BME280;2563;52.242;7.956;2023-09-18T07:39:11;99651.56;;;21.63;100.00
5574;BME280;2563;52.242;7.956;2023-09-18T07:41:37;99671.41;;;21.86;100.00
5574;BME280;2563;52.242;7.956;2023-09-18T07:44:03;99675.16;;;21.94;100.00
5574;BME280;2563;52.242;7.956;2023-09-18T07:46:28;99683.19;;;22.02;100.00
5574;BME280;2563;52.242;7.956;2023-09-18T07:48:54;99689.75;;;21.86;100.00
5574;BME280;2563;52.242;7.956;2023-09-18T07:51:20;99680.09;;;21.87;100.00
5574;BME280;2563;52.242;7.956;2023-09-18T07:53:46;99690.63;;;21.97;100.00
5574;BME280;2563;52.242;7.956;2023-09-18T07:56:11;99677.22;;;22.00;100.00
5574;BME280;2563;52.242;7.956;2023-09-18T07:58:37;99683.06;;;22.03;100.00
5574;BME280;2563;52.242;7.956;2023-09-18T08:01:04;99689.78;;;21.96;100.00
5574;BME280;2563;52.242;7.956;2023-09-18T08:03:30;99683.72;;;21.96;100.00
5574;BME280;2563;52.242;7.956;2023-09-18T08:05:56;99685.38;;;21.97;100.00
5574;BME280;2563;52.242;7.956;2023-09-18T08:08:22;99682.22;;;22.03;100.00
5574;BME280;2563;52.242;7.956;2023-09-18T08:10:49;99686.00;;;22.10;100.00
5574;BME280;2563;52.242;7.956;2023-09-18T08:13:16;99672.78;;;22.21;100.00
5574;BME280;2563;52.242;7.956;2023-09-18T08:15:41;99689.66;;;22.38;100.00
5574;BME280;2563;52.242;7.956;2023-09-18T08:18:07;99703.50;;;22.50;100.00
5574;BME280;2563;52.242;7.956;2023-09-18T08:20:32;99672.44;;;22.45;100.00
5574;BME280;2563;52.242;7.956;2023-09-18T08:22:58;99675.63;;;22.49;100.00
5574;BME280;2563;52.242;7.956;2023-09-18T08:25:26;99681.88;;;22.67;100.00
5574;BME280;2563;52.242;7.956;2023-09-18T08:27:52;99679.66;;;22.72;100.00
5574;BME280;2563;52.242;7.956;2023-09-18T08:30:18;99672.38;;;23.05;100.00
5574;BME280;2563;52.242;7.956;2023-09-18T08:32:46;99669.44;;;22.79;100.00
5574;BME280;2563;52.242;7.956;2023-09-18T08:35:12;99667.66;;;22.80;100.00
5574;BME280;2563;52.242;7.956;2023-09-18T08:37:40;99682.28;;;22.72;100.00
5574;BME280;2563;52.242;7.956;2023-09-18T08:40:07;99680.31;;;22.65;100.00
5574;BME280;2563;52.242;7.956;2023-09-18T08:42:38;99678.56;;;22.65;100.00
5574;BME280;2563;52.242;7.956;2023-09-18T08:45:08;99701.56;;;22.52;100.00
5574;BME280;2563;52.242;7.956;2023-09-18T08:47:35;99727.31;;;22.27;100.00
5574;BME280;2563;52.242;7.956;2023-09-18T08:50:01;99735.13;;;22.18;100.00
5574;BME280;2563;52.242;7.956;2023-09-18T08:52:27;99742.28;;;22.16;100.00
5574;BME280;2563;52.242;7.956;2023-09-18T08:54:53;99745.25;;;22.22;100.00
5574;BME280;2563;52.242;7.956;2023-09-18T08:57:19;99729.69;;;22.40;100.00
5574;BME280;2563;52.242;7.956;2023-09-18T08:59:48;99729.09;;;22.67;100.00
5574;BME280;2563;52.242;7.956;2023-09-18T09:02:13;99737.34;;;22.53;100.00
5574;BME280;2563;52.242;7.956;2023-09-18T09:04:39;99728.47;;;22.44;100.00
5574;BME280;2563;52.242;7.956;2023-09-18T09:07:05;99728.13;;;22.68;100.00
5574;BME280;2563;52.242;7.956;2023-09-18T09:09:30;99738.63;;;22.68;100.00
5574;BME280;2563;52.242;7.956;2023-09-18T09:11:56;99727.28;;;22.58;100.00
5574;BME280;2563;52.242;7.956;2023-09-18T09:14:22;99734.47;;;22.76;100.00
5574;BME280;2563;52.242;7.956;2023-09-18T09:16:54;99733.06;;;22.62;100.00
5574;BME280;2563;52.242;7.956;2023-09-18T09:19:30;99735.25;;;22.47;100.00
5574;BME280;2563;52.242;7.956;2023-09-18T09:21:56;99746.25;;;22.41;100.00
5574;BME280;2563;52.242;7.956;2023-09-18T09:24:42;99727.66;;;22.44;100.00
5574;BME280;2563;52.242;7.956;2023-09-18T09:27:09;99728.03;;;22.29;100.00
5574;BME280;2563;52.242;7.956;2023-09-18T09:29:36;99734.53;;;22.14;100.00
5574;BME280;2563;52.242;7.956;2023-09-18T09:32:17;99744.94;;;21.95;100.00
5574;BME280;2563;52.242;7.956;2023-09-18T09:34:45;99757.09;;;21.96;100.00
5574;BME280;2563;52.242;7.956;2023-09-18T09:37:12;99747.47;;;22.06;100.00
5574;BME280;2563;52.242;7.956;2023-09-18T09:39:51;99741.56;;;22.35;100.00
5574;BME280;2563;52.242;7.956;2023-09-18T09:42:18;99740.00;;;22.63;100.00
5574;BME280;2563;52.242;7.956;2023-09-18T09:45:00;99741.66;;;22.73;100.00
5574;BME280;2563;52.242;7.956;2023-09-18T09:47:26;99740.28;;;22.79;100.00
5574;BME280;2563;52.242;7.956;2023-09-18T09:49:52;99734.22;;;22.79;100.00
5574;BME280;2563;52.242;7.956;2023-09-18T09:52:19;99737.81;;;22.87;100.00
5574;BME280;2563;52.242;7.956;2023-09-18T09:54:47;99735.88;;;22.70;100.00
5574;BME280;2563;52.242;7.956;2023-09-18T09:57:13;99734.34;;;22.67;100.00
5574;BME280;2563;52.242;7.956;2023-09-18T09:59:38;99748.09;;;23.10;100.00
5574;BME280;2563;52.242;7.956;2023-09-18T10:02:07;99745.31;;;23.50;100.00
5574;BME280;2563;52.242;7.956;2023-09-18T10:04:35;99752.78;;;23.26;100.00
5574;BME280;2563;52.242;7.956;2023-09-18T10:07:06;99740.38;;;23.28;100.00
5574;BME280;2563;52.242;7.956;2023-09-18T10:09:34;99758.56;;;23.39;100.00
5574;BME280;2563;52.242;7.956;2023-09-18T10:12:01;99767.59;;;24.13;100.00
5574;BME280;2563;52.242;7.956;2023-09-18T10:14:31;99770.59;;;24.65;100.00
5574;BME280;2563;52.242;7.956;2023-09-18T10:16:59;99763.19;;;24.96;100.00
5574;BME280;2563;52.242;7.956;2023-09-18T10:24:37;99781.09;;;24.47;100.00
5574;BME280;2563;52.242;7.956;2023-09-18T10:27:04;99790.13;;;24.62;100.00
5574;BME280;2563;52.242;7.956;2023-09-18T10:29:33;99801.22;;;24.19;100.00
5574;BME280;2563;52.242;7.956;2023-09-18T10:32:03;99805.88;;;23.78;100.00
5574;BME280;2563;52.242;7.956;2023-09-18T10:34:30;99815.41;;;23.79;100.00
5574;BME280;2563;52.242;7.956;2023-09-18T10:36:57;99820.53;;;23.90;100.00
5574;BME280;2563;52.242;7.956;2023-09-18T10:39:26;99825.63;;;23.53;100.00
5574;BME280;2563;52.242;7.956;2023-09-18T10:41:56;99836.00;;;23.54;100.00
5574;BME280;2563;52.242;7.956;2023-09-18T10:44:27;99836.31;;;23.51;100.00
5574;BME280;2563;52.242;7.956;2023-09-18T10:46:53;99836.00;;;24.03;100.00
5574;BME280;2563;52.242;7.956;2023-09-18T10:49:20;99822.75;;;23.75;100.00
5574;BME280;2563;52.242;7.956;2023-09-18T10:51:46;99834.31;;;24.12;100.00
5574;BME280;2563;52.242;7.956;2023-09-18T10:54:16;99829.88;;;24.12;100.00
5574;BME280;2563;52.242;7.956;2023-09-18T10:56:42;99835.97;;;24.13;100.00
5574;BME280;2563;52.242;7.956;2023-09-18T10:59:08;99840.13;;;24.06;100.00
5574;BME280;2563;52.242;7.956;2023-09-18T11:01:35;99834.06;;;23.95;100.00
5574;BME280;2563;52.242;7.956;2023-09-18T11:04:03;99837.66;;;24.14;100.00
5574;BME280;2563;52.242;7.956;2023-09-18T11:06:29;99844.03;;;24.02;100.00
5574;BME280;2563;52.242;7.956;2023-09-18T11:09:07;99835.72;;;23.87;100.00
5574;BME280;2563;52.242;7.956;2023-09-18T11:11:34;99832.69;;;23.91;100.00
5574;BME280;2563;52.242;7.956;2023-09-18T11:14:00;99841.59;;;24.28;100.00
5574;BME280;2563;52.242;7.956;2023-09-18T11:19:12;99825.09;;;24.45;100.00
5574;BME280;2563;52.242;7.956;2023-09-18T11:21:41;99822.44;;;24.82;100.00
5574;BME280;2563;52.242;7.956;2023-09-18T11:24:16;99831.97;;;25.11;100.00
5574;BME280;2563;52.242;7.956;2023-09-18T11:26:44;99815.41;;;25.29;100.00
5574;BME280;2563;52.242;7.956;2023-09-18T11:29:12;99806.00;;;25.26;100.00
5574;BME280;2563;52.242;7.956;2023-09-18T11:31:51;99799.50;;;25.38;100.00
5574;BME280;2563;52.242;7.956;2023-09-18T11:34:25;99798.09;;;26.91;100.00
5574;BME280;2563;52.242;7.956;2023-09-18T11:36:54;99779.31;;;27.02;100.00
5574;BME280;2563;52.242;7.956;2023-09-18T11:39:41;99754.28;;;27.31;100.00
5574;BME280;2563;52.242;7.956;2023-09-18T11:42:13;99674.16;;;27.30;100.00
5574;BME280;2563;52.242;7.956;2023-09-18T11:44:40;99588.97;;;26.87;100.00
5574;BME280;2563;52.242;7.956;2023-09-18T11:47:16;99403.69;;;27.77;100.00
5574;BME280;2563;52.242;7.956;2023-09-18T11:49:53;99204.31;;;27.49;100.00
5574;BME280;2563;52.242;7.956;2023-09-18T11:52:24;99112.53;;;28.02;100.00
5574;BME280;2563;52.242;7.956;2023-09-18T11:54:51;99222.09;;;28.44;100.00
5574;BME280;2563;52.242;7.956;2023-09-18T11:57:18;99277.72;;;28.29;100.00
5574;BME280;2563;52.242;7.956;2023-09-18T11:59:45;99315.75;;;28.73;100.00
5574;BME280;2563;52.242;7.956;2023-09-18T12:02:29;99396.50;;;27.86;100.00
5574;BME280;2563;52.242;7.956;2023-09-18T12:05:17;99448.97;;;28.20;100.00
5574;BME280;2563;52.242;7.956;2023-09-18T12:07:44;99446.00;;;28.61;100.00
5574;BME280;2563;52.242;7.956;2023-09-18T12:10:12;99497.97;;;28.16;100.00
5574;BME280;2563;52.242;7.956;2023-09-18T12:12:37;99504.16;;;28.70;100.00
5574;BME280;2563;52.242;7.956;2023-09-18T12:15:03;99553.41;;;27.78;100.00
5574;BME280;2563;52.242;7.956;2023-09-18T12:17:29;99558.00;;;27.93;100.00
5574;BME280;2563;52.242;7.956;2023-09-18T12:19:55;99561.59;;;28.54;100.00
5574;BME280;2563;52.242;7.956;2023-09-18T12:22:25;99584.13;;;28.42;100.00
5574;BME280;2563;52.242;7.956;2023-09-18T12:24:50;99579.16;;;28.85;100.00
5574;BME280;2563;52.242;7.956;2023-09-18T12:27:16;99596.53;;;28.88;100.00
5574;BME280;2563;52.242;7.956;2023-09-18T12:29:42;99612.09;;;29.05;100.00
5574;BME280;2563;52.242;7.956;2023-09-18T12:32:11;99638.69;;;28.51;100.00
5574;BME280;2563;52.242;7.956;2023-09-18T12:34:42;99640.03;;;28.93;100.00
5574;BME280;2563;52.242;7.956;2023-09-18T12:37:08;99667.53;;;27.43;100.00
5574;BME280;2563;52.242;7.956;2023-09-18T12:39:36;99654.03;;;28.33;100.00
5574;BME280;2563;52.242;7.956;2023-09-18T12:42:03;99655.09;;;28.47;100.00
5574;BME280;2563;52.242;7.956;2023-09-18T12:44:29;99667.88;;;27.40;100.00
5574;BME280;2563;52.242;7.956;2023-09-18T12:46:54;99672.47;;;26.56;100.00
5574;BME280;2563;52.242;7.956;2023-09-18T12:49:21;99640.88;;;26.38;100.00
5574;BME280;2563;52.242;7.956;2023-09-18T12:51:58;99611.69;;;26.39;100.00
5574;BME280;2563;52.242;7.956;2023-09-18T12:54:40;99576.13;;;28.04;100.00
5574;BME280;2563;52.242;7.956;2023-09-18T12:57:07;99579.75;;;28.95;100.00
5574;BME280;2563;52.242;7.956;2023-09-18T12:59:34;99591.59;;;29.08;100.00
5574;BME280;2563;52.242;7.956;2023-09-18T13:02:05;99606.38;;;28.79;100.00
5574;BME280;2563;52.242;7.956;2023-09-18T13:04:32;99630.13;;;28.41;100.00
5574;BME280;2563;52.242;7.956;2023-09-18T13:07:10;99628.88;;;28.60;100.00
5574;BME280;2563;52.242;7.956;2023-09-18T13:09:36;99625.06;;;28.62;100.00
5574;BME280;2563;52.242;7.956;2023-09-18T13:12:03;99624.47;;;28.44;100.00
5574;BME280;2563;52.242;7.956;2023-09-18T13:14:29;99634.41;;;28.50;100.00
5574;BME280;2563;52.242;7.956;2023-09-18T13:17:00;99614.09;;;28.89;100.00
5574;BME280;2563;52.242;7.956;2023-09-18T13:19:29;99597.09;;;29.36;100.00